createdAt,value
2022-08-24T00:02:24.547Z,41.30
2022-08-24T00:04:52.645Z,44.05
2022-08-24T00:07:27.300Z,45.05
2022-08-24T00:09:55.406Z,48.85
2022-08-24T00:12:21.974Z,58.00
2022-08-24T00:14:49.541Z,57.80
2022-08-24T00:17:17.330Z,58.75
2022-08-24T00:19:44.158Z,63.05
2022-08-24T00:22:10.690Z,64.88
2022-08-24T00:24:37.357Z,60.50
2022-08-24T00:27:05.573Z,64.95
2022-08-24T00:29:32.735Z,65.90
2022-08-24T00:31:59.230Z,66.68
2022-08-24T00:34:26.580Z,63.13
2022-08-24T00:36:53.576Z,55.17
2022-08-24T00:39:20.998Z,54.13
2022-08-24T00:41:49.506Z,49.38
2022-08-24T00:44:17.575Z,51.35
2022-08-24T00:46:46.580Z,52.42
2022-08-24T00:49:39.862Z,53.17
2022-08-24T00:52:15.197Z,54.95
2022-08-24T00:54:50.947Z,56.10
2022-08-24T00:57:25.064Z,55.65
2022-08-24T00:59:55.707Z,50.42
2022-08-24T01:02:26.545Z,50.22
2022-08-24T01:04:56.712Z,53.80
2022-08-24T01:07:25.380Z,51.75
2022-08-24T01:09:53.680Z,52.50
2022-08-24T01:12:21.115Z,55.47
2022-08-24T01:14:47.869Z,52.97
2022-08-24T01:17:37.852Z,51.35
2022-08-24T01:20:07.262Z,46.28
2022-08-24T01:22:50.335Z,47.55
2022-08-24T01:25:17.304Z,50.28
2022-08-24T01:27:45.117Z,49.38
2022-08-24T01:30:15.830Z,58.40
2022-08-24T01:32:54.638Z,44.75
2022-08-24T01:35:21.326Z,48.10
2022-08-24T01:37:48.883Z,48.53
2022-08-24T01:40:16.073Z,48.30
2022-08-24T01:42:51.593Z,47.28
2022-08-24T01:45:19.782Z,46.72
2022-08-24T01:47:46.315Z,46.35
2022-08-24T01:50:12.942Z,47.38
2022-08-24T01:53:03.800Z,52.35
2022-08-24T01:55:28.991Z,50.22
2022-08-24T01:57:55.610Z,57.38
2022-08-24T02:00:22.461Z,59.88
2022-08-24T02:02:48.910Z,47.22
2022-08-24T02:05:16.838Z,48.15
2022-08-24T02:07:43.262Z,46.88
2022-08-24T02:10:11.636Z,40.63
2022-08-24T02:12:39.966Z,42.30
2022-08-24T02:15:08.623Z,46.25
2022-08-24T02:17:36.717Z,50.97
2022-08-24T02:20:05.545Z,52.15
2022-08-24T02:22:32.151Z,53.47
2022-08-24T02:24:58.579Z,50.60
2022-08-24T02:27:24.984Z,44.25
2022-08-24T02:29:51.378Z,44.50
2022-08-24T02:32:17.850Z,43.65
2022-08-24T02:34:44.275Z,44.17
2022-08-24T02:37:10.888Z,43.50
2022-08-24T02:39:37.528Z,44.53
2022-08-24T02:42:04.109Z,42.08
2022-08-24T02:44:30.574Z,42.15
2022-08-24T02:46:57.396Z,39.90
2022-08-24T02:49:23.927Z,41.50
2022-08-24T02:51:50.557Z,38.75
2022-08-24T02:54:18.218Z,37.35
2022-08-24T02:56:46.643Z,36.90
2022-08-24T02:59:14.081Z,40.10
2022-08-24T03:01:41.122Z,41.95
2022-08-24T03:04:07.980Z,36.72
2022-08-24T03:06:34.801Z,39.25
2022-08-24T03:09:01.199Z,42.65
2022-08-24T03:11:28.526Z,35.45
2022-08-24T03:14:00.208Z,38.92
2022-08-24T03:16:28.098Z,35.13
2022-08-24T03:18:54.588Z,32.67
2022-08-24T03:21:21.103Z,34.60
2022-08-24T03:23:47.967Z,37.75
2022-08-24T03:26:14.952Z,39.38
2022-08-24T03:28:41.475Z,36.80
2022-08-24T03:31:11.329Z,36.25
2022-08-24T03:33:37.939Z,33.10
2022-08-24T03:36:04.478Z,34.65
2022-08-24T03:38:30.920Z,35.05
2022-08-24T03:40:57.547Z,32.63
2022-08-24T03:43:42.356Z,31.63
2022-08-24T03:46:09.170Z,32.67
2022-08-24T03:48:36.614Z,32.88
2022-08-24T03:51:03.264Z,32.70
2022-08-24T03:53:29.731Z,32.15
2022-08-24T03:55:56.263Z,32.83
2022-08-24T03:58:22.694Z,30.20
2022-08-24T04:00:50.412Z,32.28
2022-08-24T04:03:17.021Z,31.77
2022-08-24T04:05:43.519Z,32.47
2022-08-24T04:08:10.454Z,31.33
2022-08-24T04:10:38.293Z,30.42
2022-08-24T04:13:06.350Z,32.40
2022-08-24T04:15:32.860Z,32.20
2022-08-24T04:17:59.272Z,32.90
2022-08-24T04:20:26.132Z,33.25
2022-08-24T04:22:53.511Z,31.70
2022-08-24T04:25:24.635Z,33.75
2022-08-24T04:27:52.112Z,31.23
2022-08-24T04:30:18.736Z,28.95
2022-08-24T04:32:45.381Z,29.52
2022-08-24T04:35:12.602Z,30.55
2022-08-24T04:37:39.026Z,29.95
2022-08-24T04:40:08.052Z,30.75
2022-08-24T04:42:34.876Z,30.95
2022-08-24T04:45:01.503Z,36.10
2022-08-24T04:47:27.946Z,33.45
2022-08-24T04:49:54.478Z,35.88
2022-08-24T04:52:21.146Z,38.33
2022-08-24T04:54:47.659Z,35.95
2022-08-24T04:57:17.894Z,34.92
2022-08-24T04:59:44.711Z,35.10
2022-08-24T05:02:11.240Z,33.17
2022-08-24T05:04:37.675Z,33.60
2022-08-24T05:07:04.911Z,35.80
2022-08-24T05:09:31.782Z,34.80
2022-08-24T05:11:58.305Z,35.72
2022-08-24T05:14:28.649Z,35.35
2022-08-24T05:16:55.801Z,35.28
2022-08-24T05:19:23.547Z,35.55
2022-08-24T05:21:50.825Z,36.40
2022-08-24T05:24:17.454Z,35.58
2022-08-24T05:26:43.915Z,36.63
2022-08-24T05:29:10.742Z,35.30
2022-08-24T05:31:37.704Z,36.75
2022-08-24T05:34:04.842Z,39.92
2022-08-24T05:36:38.229Z,38.22
2022-08-24T05:39:12.415Z,39.85
2022-08-24T05:41:44.314Z,39.72
2022-08-24T05:44:15.631Z,38.85
2022-08-24T05:46:43.152Z,38.38
2022-08-24T05:49:10.299Z,40.58
2022-08-24T05:51:36.830Z,41.17
2022-08-24T05:54:05.029Z,42.47
2022-08-24T05:56:32.178Z,37.95
2022-08-24T05:58:59.227Z,39.28
2022-08-24T06:01:27.141Z,39.92
2022-08-24T06:03:55.455Z,41.65
2022-08-24T06:06:23.153Z,42.38
2022-08-24T06:08:52.692Z,42.42
2022-08-24T06:11:30.265Z,42.58
2022-08-24T06:14:00.548Z,42.45
2022-08-24T06:16:27.204Z,42.75
2022-08-24T06:18:54.100Z,44.70
2022-08-24T06:21:25.746Z,46.55
2022-08-24T06:26:40.463Z,44.95
2022-08-24T06:29:10.622Z,43.55
2022-08-24T06:31:39.885Z,44.08
2022-08-24T06:34:14.162Z,43.90
2022-08-24T06:36:41.436Z,45.08
2022-08-24T06:39:09.965Z,44.70
2022-08-24T06:41:37.812Z,42.28
2022-08-24T06:44:05.049Z,47.15
2022-08-24T06:46:33.043Z,45.45
2022-08-24T06:48:59.703Z,42.35
2022-08-24T06:51:26.114Z,41.65
2022-08-24T06:53:56.125Z,43.70
2022-08-24T06:56:26.574Z,39.88
2022-08-24T06:58:52.998Z,41.70
2022-08-24T07:01:25.944Z,39.60
2022-08-24T07:03:53.259Z,42.08
2022-08-24T07:06:20.318Z,40.78
2022-08-24T07:08:46.770Z,40.13
2022-08-24T07:11:15.509Z,40.38
2022-08-24T07:13:42.534Z,37.85
2022-08-24T07:16:10.189Z,40.17
2022-08-24T07:18:37.380Z,38.35
2022-08-24T07:21:07.297Z,39.85
2022-08-24T07:23:42.295Z,53.67
2022-08-24T07:26:20.868Z,36.13
2022-08-24T07:29:06.711Z,32.78
2022-08-24T07:31:35.693Z,35.78
2022-08-24T07:34:03.968Z,28.95
2022-08-24T07:36:30.512Z,28.63
2022-08-24T07:38:57.272Z,26.85
2022-08-24T07:44:15.605Z,32.67
2022-08-24T07:46:43.085Z,32.92
2022-08-24T07:49:28.027Z,34.78
2022-08-24T07:51:57.896Z,34.17
2022-08-24T07:54:24.347Z,34.03
2022-08-24T07:56:50.770Z,34.83
2022-08-24T07:59:17.630Z,35.88
2022-08-24T08:01:44.687Z,33.55
2022-08-24T08:04:11.251Z,30.50
2022-08-24T08:06:37.787Z,27.90
2022-08-24T08:09:05.332Z,27.05
2022-08-24T08:11:32.597Z,25.35
2022-08-24T08:13:59.341Z,24.50
2022-08-24T08:16:26.345Z,22.33
2022-08-24T08:19:09.398Z,24.88
2022-08-24T08:22:07.208Z,23.60
2022-08-24T08:24:34.888Z,24.48
2022-08-24T08:27:01.825Z,21.00
2022-08-24T08:29:31.428Z,21.40
2022-08-24T08:31:57.971Z,23.67
2022-08-24T08:34:24.515Z,22.98
2022-08-24T08:36:51.481Z,23.98
2022-08-24T08:39:19.966Z,23.33
2022-08-24T08:42:28.030Z,21.38
2022-08-24T08:45:31.886Z,24.92
2022-08-24T08:48:36.522Z,26.65
2022-08-24T08:51:21.881Z,27.45
2022-08-24T08:54:12.929Z,26.45
2022-08-24T08:57:05.158Z,27.00
2022-08-24T08:59:54.345Z,33.35
2022-08-24T09:03:09.206Z,36.38
2022-08-24T09:08:57.693Z,29.50
2022-08-24T09:11:41.370Z,29.95
2022-08-24T09:14:31.950Z,32.67
2022-08-24T09:17:04.327Z,27.23
2022-08-24T09:20:09.611Z,27.58
2022-08-24T09:25:26.629Z,23.40
2022-08-24T09:28:00.285Z,17.13
2022-08-24T09:30:41.411Z,22.38
2022-08-24T09:33:21.367Z,16.17
2022-08-24T09:35:51.427Z,17.02
2022-08-24T09:38:41.203Z,16.85
2022-08-24T09:41:18.910Z,14.77
2022-08-24T09:44:20.106Z,17.52
2022-08-24T09:47:17.826Z,16.65
2022-08-24T09:50:11.726Z,16.63
2022-08-24T09:53:16.161Z,15.63
2022-08-24T09:56:11.760Z,13.32
2022-08-24T09:58:58.977Z,16.77
2022-08-24T10:01:39.902Z,17.52
2022-08-24T10:04:32.397Z,14.02
2022-08-24T10:07:18.255Z,16.90
2022-08-24T10:09:59.469Z,12.43
2022-08-24T10:12:56.334Z,12.10
2022-08-24T10:15:37.800Z,9.82
2022-08-24T10:18:35.147Z,7.40
2022-08-24T10:21:17.147Z,7.45
2022-08-24T10:24:02.327Z,7.78
2022-08-24T10:26:45.628Z,7.95
2022-08-24T10:29:51.265Z,8.30
2022-08-24T10:32:41.034Z,8.68
2022-08-24T10:35:18.180Z,10.50
2022-08-24T10:38:24.436Z,11.85
2022-08-24T10:41:15.865Z,12.82
2022-08-24T10:44:11.158Z,11.32
2022-08-24T10:46:53.521Z,11.13
2022-08-24T10:49:35.137Z,10.57
2022-08-24T10:52:01.514Z,13.07
2022-08-24T10:54:28.277Z,13.88
2022-08-24T10:57:10.298Z,14.65
2022-08-24T11:00:22.605Z,15.82
2022-08-24T11:02:50.317Z,16.00
2022-08-24T11:05:29.974Z,18.60
2022-08-24T11:08:02.694Z,19.75
2022-08-24T11:10:35.193Z,13.23
2022-08-24T11:13:21.755Z,12.25
2022-08-24T11:16:02.329Z,12.75
2022-08-24T11:18:47.790Z,17.90
2022-08-24T11:21:33.753Z,16.48
2022-08-24T11:24:32.496Z,21.52
2022-08-24T11:27:24.254Z,17.77
2022-08-24T11:29:54.635Z,17.83
2022-08-24T11:32:37.173Z,14.88
2022-08-24T11:35:09.446Z,15.60
2022-08-24T11:37:38.620Z,13.45
2022-08-24T11:40:08.625Z,11.68
2022-08-24T11:43:05.733Z,12.50
2022-08-24T11:45:42.557Z,15.32
2022-08-24T11:48:27.236Z,15.52
2022-08-24T11:51:14.990Z,16.92
2022-08-24T11:54:09.401Z,13.70
2022-08-24T11:56:48.814Z,9.18
2022-08-24T11:59:21.382Z,9.48
2022-08-24T12:01:53.788Z,9.55
2022-08-24T12:04:49.202Z,10.43
2022-08-24T12:07:26.539Z,8.73
2022-08-24T12:09:55.855Z,8.20
2022-08-24T12:12:35.649Z,8.35
2022-08-24T12:15:12.728Z,10.40
2022-08-24T12:17:42.350Z,11.82
2022-08-24T12:20:31.848Z,16.90
2022-08-24T12:23:03.201Z,17.25
2022-08-24T12:25:51.734Z,18.15
2022-08-24T12:28:29.147Z,22.23
2022-08-24T12:30:59.749Z,18.58
2022-08-24T12:33:31.876Z,12.73
2022-08-24T12:36:03.058Z,9.93
2022-08-24T12:38:42.022Z,9.70
2022-08-24T12:41:24.189Z,9.18
2022-08-24T12:44:01.528Z,9.65
2022-08-24T12:46:28.169Z,9.55
2022-08-24T12:49:23.024Z,10.35
2022-08-24T12:52:04.695Z,11.38
2022-08-24T12:54:51.930Z,9.82
2022-08-24T12:57:35.606Z,9.88
2022-08-24T13:00:10.681Z,9.75
2022-08-24T13:02:44.093Z,9.82
2022-08-24T13:05:19.012Z,8.77
2022-08-24T13:07:49.029Z,8.15
2022-08-24T13:10:24.734Z,8.30
2022-08-24T13:13:05.096Z,8.20
2022-08-24T13:15:31.449Z,8.80
2022-08-24T13:18:17.778Z,8.40
2022-08-24T13:20:44.199Z,8.80
2022-08-24T13:23:19.132Z,8.40
2022-08-24T13:25:49.760Z,9.23
2022-08-24T13:28:25.420Z,8.23
2022-08-24T13:31:23.129Z,7.82
2022-08-24T13:34:09.067Z,9.55
2022-08-24T13:36:57.585Z,8.38
2022-08-24T13:39:54.878Z,8.90
2022-08-24T13:42:27.702Z,9.38
2022-08-24T13:45:09.527Z,10.63
2022-08-24T13:48:06.878Z,10.40
2022-08-24T13:50:59.140Z,10.00
2022-08-24T13:53:52.627Z,10.15
2022-08-24T13:56:33.300Z,9.30
2022-08-24T13:59:34.835Z,11.38
2022-08-24T14:02:16.455Z,10.43
2022-08-24T14:05:05.887Z,10.50
2022-08-24T14:08:07.710Z,11.93
2022-08-24T14:11:07.876Z,11.02
2022-08-24T14:13:47.810Z,10.85
2022-08-24T14:16:57.028Z,9.88
2022-08-24T14:19:32.754Z,9.55
2022-08-24T14:21:59.295Z,9.80
2022-08-24T14:24:39.588Z,9.57
2022-08-24T14:27:35.230Z,9.20
2022-08-24T14:30:23.382Z,8.55
2022-08-24T14:33:03.384Z,8.75
2022-08-24T14:35:44.743Z,8.82
2022-08-24T14:38:20.206Z,8.05
2022-08-24T14:40:52.725Z,8.57
2022-08-24T14:44:03.614Z,9.00
2022-08-24T14:47:02.394Z,8.75
2022-08-24T14:49:35.665Z,8.52
2022-08-24T14:52:42.265Z,7.95
2022-08-24T14:55:18.580Z,9.00
2022-08-24T14:57:52.008Z,8.70
2022-08-24T15:00:20.416Z,9.32
2022-08-24T15:03:11.937Z,9.13
2022-08-24T15:06:25.141Z,9.68
2022-08-24T15:08:47.571Z,9.02
2022-08-24T15:11:24.605Z,14.30
2022-08-24T15:13:56.615Z,11.38
2022-08-24T15:16:33.801Z,11.02
2022-08-24T15:19:19.565Z,16.35
2022-08-24T15:22:04.815Z,23.27
2022-08-24T15:24:57.170Z,17.27
2022-08-24T15:27:42.381Z,11.82
2022-08-24T15:30:29.012Z,21.52
2022-08-24T15:33:19.320Z,18.02
2022-08-24T15:36:03.253Z,16.70
2022-08-24T15:38:29.561Z,15.93
2022-08-24T15:41:19.954Z,29.42
2022-08-24T15:43:52.222Z,30.00
2022-08-24T15:46:27.775Z,29.60
2022-08-24T15:49:04.406Z,27.10
2022-08-24T15:51:43.179Z,30.38
2022-08-24T15:54:30.447Z,28.00
2022-08-24T15:57:09.359Z,28.48
2022-08-24T15:59:41.755Z,27.45
2022-08-24T16:02:26.868Z,27.40
2022-08-24T16:05:24.191Z,27.85
2022-08-24T16:08:03.307Z,25.45
2022-08-24T16:10:51.872Z,24.98
2022-08-24T16:13:18.222Z,26.98
2022-08-24T16:15:51.317Z,25.95
2022-08-24T16:18:20.345Z,25.53
2022-08-24T16:20:48.928Z,26.77
2022-08-24T16:23:28.228Z,25.60
2022-08-24T16:26:53.642Z,24.20
2022-08-24T16:32:33.590Z,21.52
2022-08-24T16:35:13.319Z,21.15
2022-08-24T16:37:40.137Z,21.90
2022-08-24T16:40:08.935Z,21.83
2022-08-24T16:42:36.492Z,20.90
2022-08-24T16:45:05.498Z,20.50
2022-08-24T16:47:32.026Z,20.15
2022-08-24T16:49:58.889Z,21.20
2022-08-24T16:52:25.397Z,24.17
2022-08-24T16:54:51.851Z,22.60
2022-08-24T16:57:23.195Z,23.38
2022-08-24T16:59:52.024Z,20.00
2022-08-24T17:02:20.436Z,21.40
2022-08-24T17:04:46.944Z,22.17
2022-08-24T17:07:22.148Z,20.90
2022-08-24T17:09:48.884Z,19.67
2022-08-24T17:12:15.573Z,19.77
2022-08-24T17:14:42.776Z,18.88
2022-08-24T17:17:13.268Z,17.50
2022-08-24T17:19:40.469Z,17.45
2022-08-24T17:22:14.336Z,17.38
2022-08-24T17:24:43.212Z,15.18
2022-08-24T17:27:09.657Z,15.27
2022-08-24T17:29:36.268Z,15.90
2022-08-24T17:32:02.946Z,16.00
2022-08-24T17:34:29.439Z,14.07
2022-08-24T17:36:57.065Z,13.45
2022-08-24T17:39:24.128Z,13.63
2022-08-24T17:41:52.320Z,12.52
2022-08-24T17:44:24.877Z,12.13
2022-08-24T17:46:54.040Z,12.80
2022-08-24T17:49:21.109Z,10.75
2022-08-24T17:51:50.659Z,11.18
2022-08-24T17:54:18.008Z,11.18
2022-08-24T17:56:46.563Z,11.35
2022-08-24T17:59:22.856Z,11.35
2022-08-24T18:01:55.402Z,11.80
2022-08-24T18:04:26.029Z,11.52
2022-08-24T18:06:52.754Z,10.90
2022-08-24T18:09:36.648Z,11.68
2022-08-24T18:12:05.863Z,10.35
2022-08-24T18:14:34.460Z,10.70
2022-08-24T18:17:08.569Z,10.25
2022-08-24T18:22:04.337Z,10.80
2022-08-24T18:24:32.455Z,16.92
2022-08-24T18:27:10.156Z,19.77
2022-08-24T18:29:39.658Z,20.05
2022-08-24T18:32:06.812Z,18.50
2022-08-24T18:34:34.208Z,19.95
2022-08-24T18:37:01.063Z,20.55
2022-08-24T18:39:27.687Z,21.10
2022-08-24T18:41:55.583Z,20.85
2022-08-24T18:44:26.141Z,19.40
2022-08-24T18:46:54.753Z,18.55
2022-08-24T18:49:21.806Z,19.15
2022-08-24T18:51:49.147Z,19.17
2022-08-24T18:54:20.567Z,18.75
2022-08-24T18:56:47.224Z,17.38
2022-08-24T18:59:15.779Z,16.33
2022-08-24T19:02:02.177Z,18.70
2022-08-24T19:04:32.601Z,18.15
2022-08-24T19:06:59.993Z,16.75
2022-08-24T19:09:29.639Z,16.70
2022-08-24T19:11:58.624Z,17.35
2022-08-24T19:14:25.123Z,15.60
2022-08-24T19:16:52.471Z,13.70
2022-08-24T19:19:19.814Z,14.30
2022-08-24T19:21:46.326Z,16.27
2022-08-24T19:24:13.183Z,16.00
2022-08-24T19:26:39.968Z,14.57
2022-08-24T19:29:06.422Z,14.00
2022-08-24T19:31:33.864Z,11.52
2022-08-24T19:34:03.650Z,12.05
2022-08-24T19:36:30.619Z,11.30
2022-08-24T19:38:57.136Z,10.88
2022-08-24T19:41:24.103Z,10.68
2022-08-24T19:44:27.800Z,11.18
2022-08-24T19:46:55.491Z,12.00
2022-08-24T19:49:22.117Z,12.45
2022-08-24T19:51:48.642Z,12.05
2022-08-24T19:54:15.119Z,11.88
2022-08-24T19:56:41.767Z,12.43
2022-08-24T19:59:20.669Z,13.27
2022-08-24T20:01:47.183Z,12.20
2022-08-24T20:04:13.681Z,13.00
2022-08-24T20:06:41.085Z,10.90
2022-08-24T20:09:08.697Z,12.30
2022-08-24T20:11:35.938Z,13.25
2022-08-24T20:14:02.769Z,12.77
2022-08-24T20:16:35.223Z,12.13
2022-08-24T20:19:03.062Z,11.82
2022-08-24T20:21:30.249Z,12.45
2022-08-24T20:24:00.462Z,13.35
2022-08-24T20:26:28.933Z,16.00
2022-08-24T20:28:58.764Z,15.18
2022-08-24T20:31:28.431Z,15.75
2022-08-24T20:33:57.172Z,15.88
2022-08-24T20:36:36.199Z,15.68
2022-08-24T20:39:05.962Z,16.45
2022-08-24T20:41:32.621Z,17.80
2022-08-24T20:43:59.495Z,15.82
2022-08-24T20:46:26.992Z,15.93
2022-08-24T20:48:55.881Z,16.42
2022-08-24T20:51:24.104Z,15.07
2022-08-24T20:53:50.537Z,14.27
2022-08-24T20:56:28.709Z,14.77
2022-08-24T20:58:58.234Z,14.02
2022-08-24T21:01:24.881Z,14.23
2022-08-24T21:03:51.664Z,15.05
2022-08-24T21:06:19.511Z,14.80
2022-08-24T21:08:48.275Z,16.67
2022-08-24T21:11:16.053Z,17.95
2022-08-24T21:13:42.557Z,19.52
2022-08-24T21:16:14.907Z,19.55
2022-08-24T21:18:44.781Z,19.05
2022-08-24T21:21:11.225Z,18.65
2022-08-24T21:23:37.689Z,17.80
2022-08-24T21:26:08.030Z,21.42
2022-08-24T21:28:36.290Z,21.98
2022-08-24T21:31:06.138Z,21.13
2022-08-24T21:33:51.344Z,21.65
2022-08-24T21:36:18.018Z,21.08
2022-08-24T21:38:45.406Z,21.17
2022-08-24T21:41:12.193Z,23.48
2022-08-24T21:43:38.596Z,23.00
2022-08-24T21:46:05.843Z,27.48
2022-08-24T21:48:32.342Z,26.05
2022-08-24T21:50:58.787Z,29.77
2022-08-24T21:53:28.465Z,29.23
2022-08-24T21:55:55.961Z,28.92
2022-08-24T21:58:24.009Z,28.75
2022-08-24T22:00:51.426Z,29.95
2022-08-24T22:03:17.979Z,30.33
2022-08-24T22:05:44.428Z,29.15
2022-08-24T22:08:11.313Z,28.23
2022-08-24T22:10:38.124Z,29.92
2022-08-24T22:13:04.884Z,26.23
2022-08-24T22:15:34.279Z,23.65
2022-08-24T22:18:01.293Z,24.80
2022-08-24T22:20:27.884Z,21.73
2022-08-24T22:22:54.309Z,19.58
2022-08-24T22:25:20.803Z,17.90
2022-08-24T22:27:47.618Z,16.77
2022-08-24T22:30:17.382Z,17.30
2022-08-24T22:32:45.353Z,18.48
2022-08-24T22:35:12.543Z,15.25
2022-08-24T22:37:39.099Z,13.60
2022-08-24T22:40:06.705Z,13.30
2022-08-24T22:42:39.297Z,12.30
2022-08-24T22:45:07.031Z,12.48
2022-08-24T22:47:33.705Z,14.60
2022-08-24T22:50:00.128Z,13.38
2022-08-24T22:52:26.677Z,13.75
2022-08-24T22:54:58.415Z,15.55
2022-08-24T22:57:25.562Z,16.13
2022-08-24T22:59:53.221Z,15.63
2022-08-24T23:02:19.789Z,15.80
2022-08-24T23:04:49.706Z,15.93
2022-08-24T23:07:16.582Z,16.95
2022-08-24T23:09:45.417Z,15.38
2022-08-24T23:12:18.230Z,16.02
2022-08-24T23:14:44.893Z,19.05
2022-08-24T23:17:11.611Z,16.45
2022-08-24T23:19:56.600Z,16.52
2022-08-24T23:22:23.057Z,17.50
2022-08-24T23:24:49.527Z,20.08
2022-08-24T23:27:17.175Z,19.83
2022-08-24T23:29:45.861Z,19.35
2022-08-24T23:32:12.930Z,18.80
2022-08-24T23:34:45.046Z,19.20
2022-08-24T23:37:11.487Z,20.17
2022-08-24T23:39:38.077Z,18.35
2022-08-24T23:42:05.946Z,14.75
2022-08-24T23:44:33.589Z,19.38
2022-08-24T23:47:00.416Z,16.75
2022-08-24T23:49:28.311Z,12.93
2022-08-24T23:51:54.760Z,15.02
2022-08-24T23:54:22.057Z,12.23
2022-08-24T23:56:49.262Z,13.30
2022-08-24T23:59:19.355Z,11.88
